createdAt,value
2022-08-17T00:01:28.814Z,43.80
2022-08-17T00:04:22.599Z,43.80
2022-08-17T00:07:12.155Z,43.90
2022-08-17T00:10:01.646Z,44.00
2022-08-17T00:12:51.529Z,44.20
2022-08-17T00:15:41.210Z,44.30
2022-08-17T00:19:01.010Z,44.30
2022-08-17T00:22:30.800Z,44.40
2022-08-17T00:24:57.564Z,44.50
2022-08-17T00:27:47.543Z,44.30
2022-08-17T00:30:53.169Z,44.20
2022-08-17T00:33:45.396Z,44.30
2022-08-17T00:36:34.884Z,44.30
2022-08-17T00:39:25.690Z,44.40
2022-08-17T00:42:16.783Z,45.10
2022-08-17T00:45:08.246Z,44.40
2022-08-17T00:47:57.633Z,44.50
2022-08-17T00:51:00.102Z,44.60
2022-08-17T00:53:56.633Z,45.00
2022-08-17T00:56:51.258Z,44.90
2022-08-17T00:59:46.095Z,45.10
2022-08-17T01:02:44.018Z,45.10
2022-08-17T01:05:38.422Z,45.20
2022-08-17T01:08:33.537Z,45.30
2022-08-17T01:11:22.935Z,45.40
2022-08-17T01:14:14.579Z,45.40
2022-08-17T01:17:04.907Z,45.50
2022-08-17T01:19:54.343Z,45.40
2022-08-17T01:22:45.175Z,45.40
2022-08-17T01:25:35.181Z,45.60
2022-08-17T01:28:36.476Z,45.60
2022-08-17T01:31:41.890Z,45.60
2022-08-17T01:34:42.676Z,45.60
2022-08-17T01:37:41.925Z,45.60
2022-08-17T01:40:37.771Z,45.70
2022-08-17T01:43:32.433Z,45.90
2022-08-17T01:46:26.001Z,45.90
2022-08-17T01:49:15.835Z,45.90
2022-08-17T01:52:08.604Z,46.00
2022-08-17T01:54:58.593Z,46.00
2022-08-17T01:57:49.377Z,45.90
2022-08-17T02:00:59.370Z,46.00
2022-08-17T02:03:56.121Z,46.00
2022-08-17T02:06:54.044Z,45.90
2022-08-17T02:09:44.408Z,45.80
2022-08-17T02:12:42.439Z,45.90
2022-08-17T02:15:34.673Z,45.80
2022-08-17T02:18:25.764Z,45.90
2022-08-17T02:21:15.498Z,45.80
2022-08-17T02:24:05.962Z,45.80
2022-08-17T02:26:55.420Z,45.90
2022-08-17T02:29:44.957Z,46.00
2022-08-17T02:32:35.729Z,46.00
2022-08-17T02:35:25.317Z,46.10
2022-08-17T02:38:14.803Z,46.00
2022-08-17T02:41:05.107Z,46.20
2022-08-17T02:43:54.666Z,46.20
2022-08-17T02:46:44.028Z,46.30
2022-08-17T02:49:34.903Z,46.30
2022-08-17T02:52:42.978Z,46.30
2022-08-17T02:55:37.201Z,46.40
2022-08-17T02:58:32.072Z,46.40
2022-08-17T03:01:25.126Z,46.30
2022-08-17T03:04:14.841Z,46.50
2022-08-17T03:07:06.850Z,46.50
2022-08-17T03:09:56.201Z,46.70
2022-08-17T03:12:46.907Z,46.60
2022-08-17T03:15:36.546Z,46.70
2022-08-17T03:18:30.078Z,46.90
2022-08-17T03:21:19.536Z,46.80
2022-08-17T03:24:11.532Z,47.00
2022-08-17T03:27:00.985Z,47.20
2022-08-17T03:29:50.388Z,47.20
2022-08-17T03:32:42.058Z,47.40
2022-08-17T03:35:36.409Z,47.30
2022-08-17T03:38:26.436Z,47.50
2022-08-17T03:41:17.291Z,47.50
2022-08-17T03:44:06.764Z,47.50
2022-08-17T03:47:13.443Z,47.40
2022-08-17T03:50:20.025Z,47.50
2022-08-17T03:53:27.437Z,47.50
2022-08-17T03:56:35.767Z,47.50
2022-08-17T03:59:25.194Z,47.60
2022-08-17T04:02:20.662Z,47.50
2022-08-17T04:05:10.766Z,47.70
2022-08-17T04:08:00.168Z,47.80
2022-08-17T04:10:49.813Z,47.90
2022-08-17T04:13:40.629Z,48.00
2022-08-17T04:16:30.847Z,48.20
2022-08-17T04:19:20.405Z,48.40
2022-08-17T04:22:09.846Z,48.40
2022-08-17T04:25:20.102Z,48.40
2022-08-17T04:28:16.323Z,48.60
2022-08-17T04:31:07.690Z,48.70
2022-08-17T04:33:57.252Z,48.80
2022-08-17T04:36:50.288Z,48.80
2022-08-17T04:40:03.923Z,49.10
2022-08-17T04:43:02.826Z,49.50
2022-08-17T04:45:56.921Z,49.60
2022-08-17T04:48:51.313Z,49.30
2022-08-17T04:51:54.676Z,49.50
2022-08-17T04:54:49.496Z,49.50
2022-08-17T04:57:44.555Z,50.00
2022-08-17T05:00:35.165Z,49.40
2022-08-17T05:03:26.044Z,49.50
2022-08-17T05:06:16.939Z,49.50
2022-08-17T05:09:06.807Z,49.70
2022-08-17T05:11:56.438Z,49.50
2022-08-17T05:14:45.914Z,49.70
2022-08-17T05:17:35.362Z,50.10
2022-08-17T05:20:26.169Z,51.00
2022-08-17T05:23:20.606Z,52.00
2022-08-17T05:26:16.302Z,52.70
2022-08-17T05:29:14.883Z,53.20
2022-08-17T05:32:38.951Z,53.50
2022-08-17T05:35:20.171Z,53.40
2022-08-17T05:38:10.093Z,53.20
2022-08-17T05:41:04.196Z,52.80
2022-08-17T05:43:56.339Z,52.50
2022-08-17T05:46:51.560Z,52.10
2022-08-17T05:49:41.048Z,51.50
2022-08-17T05:52:41.191Z,51.30
2022-08-17T05:55:42.000Z,50.80
2022-08-17T05:58:40.137Z,50.50
2022-08-17T06:01:42.150Z,50.10
2022-08-17T06:04:48.170Z,49.40
2022-08-17T06:07:49.400Z,48.80
2022-08-17T06:10:46.565Z,48.30
2022-08-17T06:14:19.029Z,48.10
2022-08-17T06:17:14.854Z,47.30
2022-08-17T06:20:10.594Z,47.50
2022-08-17T06:23:07.026Z,47.10
2022-08-17T06:26:04.773Z,46.50
2022-08-17T06:29:00.986Z,46.10
2022-08-17T06:31:51.056Z,45.80
2022-08-17T06:34:41.023Z,45.50
2022-08-17T06:37:54.343Z,45.20
2022-08-17T06:41:00.688Z,44.00
2022-08-17T06:44:10.913Z,44.10
2022-08-17T06:47:09.051Z,43.50
2022-08-17T06:50:09.480Z,43.30
2022-08-17T06:53:07.689Z,42.90
2022-08-17T06:56:03.356Z,42.50
2022-08-17T06:59:00.406Z,42.10
2022-08-17T07:01:52.557Z,41.50
2022-08-17T07:04:43.030Z,41.70
2022-08-17T07:07:52.299Z,41.60
2022-08-17T07:10:48.919Z,41.30
2022-08-17T07:13:51.367Z,40.60
2022-08-17T07:16:47.314Z,39.80
2022-08-17T07:19:41.069Z,40.00
2022-08-17T07:22:50.336Z,39.80
2022-08-17T07:25:50.546Z,38.60
2022-08-17T07:28:40.433Z,39.10
2022-08-17T07:31:33.531Z,38.40
2022-08-17T07:34:24.465Z,37.60
2022-08-17T07:37:20.822Z,37.40
2022-08-17T07:40:28.191Z,37.00
2022-08-17T07:43:26.506Z,35.50
2022-08-17T07:46:39.516Z,35.10
2022-08-17T07:49:38.820Z,35.70
2022-08-17T07:52:50.552Z,34.20
2022-08-17T07:55:41.900Z,34.70
2022-08-17T07:58:31.266Z,34.30
2022-08-17T08:01:20.735Z,34.00
2022-08-17T08:04:59.126Z,33.60
2022-08-17T08:07:52.361Z,32.20
2022-08-17T08:10:45.286Z,32.30
2022-08-17T08:13:40.476Z,32.20
2022-08-17T08:16:30.833Z,32.10
2022-08-17T08:19:21.150Z,32.00
2022-08-17T08:22:15.888Z,32.00
2022-08-17T08:25:22.263Z,31.40
2022-08-17T08:28:25.004Z,30.40
2022-08-17T08:31:26.344Z,30.10
2022-08-17T08:35:00.615Z,30.00
2022-08-17T08:37:46.428Z,30.20
2022-08-17T08:40:54.834Z,29.90
2022-08-17T08:43:57.282Z,29.40
2022-08-17T08:46:57.732Z,29.30
2022-08-17T08:50:30.111Z,29.30
2022-08-17T08:53:39.049Z,28.80
2022-08-17T08:56:39.190Z,29.00
2022-08-17T08:59:41.977Z,29.10
2022-08-17T09:02:53.498Z,29.10
2022-08-17T09:06:06.108Z,27.90
2022-08-17T09:09:26.675Z,27.30
2022-08-17T09:12:27.427Z,26.90
2022-08-17T09:15:22.451Z,26.40
2022-08-17T09:19:00.772Z,27.20
2022-08-17T09:21:48.373Z,26.40
2022-08-17T09:24:45.524Z,26.80
2022-08-17T09:27:50.040Z,27.40
2022-08-17T09:30:46.144Z,27.80
2022-08-17T09:33:42.475Z,28.50
2022-08-17T09:36:42.171Z,29.30
2022-08-17T09:39:40.444Z,28.60
2022-08-17T09:42:41.453Z,28.70
2022-08-17T09:45:37.327Z,28.70
2022-08-17T09:48:32.339Z,28.40
2022-08-17T09:51:31.564Z,28.00
2022-08-17T09:54:39.165Z,27.60
2022-08-17T09:57:47.992Z,27.20
2022-08-17T10:00:42.727Z,26.90
2022-08-17T10:04:10.076Z,27.10
2022-08-17T10:07:06.603Z,26.70
2022-08-17T10:10:05.397Z,27.20
2022-08-17T10:13:03.016Z,27.30
2022-08-17T10:16:02.452Z,27.00
2022-08-17T10:19:14.393Z,26.50
2022-08-17T10:22:35.022Z,25.70
2022-08-17T10:26:00.781Z,25.50
2022-08-17T10:28:58.322Z,25.20
2022-08-17T10:31:51.668Z,25.10
2022-08-17T10:35:12.505Z,25.40
2022-08-17T10:38:37.685Z,25.20
2022-08-17T10:41:36.865Z,25.30
2022-08-17T10:44:46.912Z,25.70
2022-08-17T10:48:05.879Z,25.60
2022-08-17T10:51:10.940Z,25.50
2022-08-17T10:54:02.690Z,25.20
2022-08-17T10:56:53.924Z,25.10
2022-08-17T10:59:53.487Z,25.00
2022-08-17T11:02:50.947Z,24.80
2022-08-17T11:05:56.652Z,24.70
2022-08-17T11:09:11.022Z,24.60
2022-08-17T11:12:25.623Z,24.70
2022-08-17T11:15:33.858Z,24.80
2022-08-17T11:18:45.863Z,25.00
2022-08-17T11:22:23.411Z,25.00
2022-08-17T11:25:18.110Z,24.70
2022-08-17T11:28:25.147Z,24.70
2022-08-17T11:31:39.102Z,24.40
2022-08-17T11:34:31.779Z,23.90
2022-08-17T11:37:41.744Z,23.70
2022-08-17T11:41:10.026Z,23.40
2022-08-17T11:44:22.112Z,23.40
2022-08-17T11:47:39.706Z,23.40
2022-08-17T11:51:03.698Z,23.50
2022-08-17T11:54:32.373Z,23.70
2022-08-17T11:58:01.813Z,23.70
2022-08-17T12:00:58.954Z,23.90
2022-08-17T12:03:56.997Z,24.10
2022-08-17T12:06:51.725Z,24.40
2022-08-17T12:09:46.177Z,24.50
2022-08-17T12:12:36.355Z,24.60
2022-08-17T12:15:32.641Z,24.80
2022-08-17T12:18:25.821Z,24.90
2022-08-17T12:21:34.370Z,25.00
2022-08-17T12:24:36.049Z,25.10
2022-08-17T12:28:01.437Z,25.30
2022-08-17T12:30:50.282Z,25.40
2022-08-17T12:33:46.138Z,25.40
2022-08-17T12:36:37.147Z,25.60
2022-08-17T12:39:27.824Z,25.70
2022-08-17T12:42:31.328Z,25.70
2022-08-17T12:45:26.398Z,25.60
2022-08-17T12:48:25.079Z,25.50
2022-08-17T12:51:14.782Z,25.40
2022-08-17T12:54:05.785Z,25.30
2022-08-17T12:56:55.969Z,25.40
2022-08-17T12:59:50.773Z,25.40
2022-08-17T13:02:45.509Z,25.50
2022-08-17T13:05:38.861Z,25.50
2022-08-17T13:08:33.259Z,25.60
2022-08-17T13:11:26.334Z,25.70
2022-08-17T13:14:18.421Z,25.70
2022-08-17T13:17:12.811Z,25.70
2022-08-17T13:20:06.203Z,25.80
2022-08-17T13:22:58.306Z,25.80
2022-08-17T13:25:55.161Z,25.80
2022-08-17T13:28:52.448Z,26.00
2022-08-17T13:31:52.128Z,26.00
2022-08-17T13:35:12.993Z,25.90
2022-08-17T13:38:02.445Z,26.00
2022-08-17T13:40:54.114Z,26.00
2022-08-17T13:43:49.563Z,26.00
2022-08-17T13:46:40.298Z,26.00
2022-08-17T13:49:40.962Z,26.00
2022-08-17T13:52:43.554Z,26.00
2022-08-17T13:55:33.985Z,26.00
2022-08-17T13:58:27.925Z,26.10
2022-08-17T14:01:33.232Z,26.10
2022-08-17T14:04:27.872Z,26.20
2022-08-17T14:07:31.756Z,26.20
2022-08-17T14:10:21.409Z,26.40
2022-08-17T14:13:10.800Z,26.40
2022-08-17T14:16:00.234Z,26.40
2022-08-17T14:18:56.669Z,26.40
2022-08-17T14:21:48.576Z,26.40
2022-08-17T14:24:44.618Z,26.40
2022-08-17T14:27:51.883Z,26.40
2022-08-17T14:30:43.537Z,26.40
2022-08-17T14:33:32.989Z,26.30
2022-08-17T14:36:22.467Z,26.30
2022-08-17T14:39:14.851Z,26.30
2022-08-17T14:42:04.338Z,26.30
2022-08-17T14:44:54.344Z,26.20
2022-08-17T14:47:43.924Z,26.20
2022-08-17T14:50:35.542Z,26.20
2022-08-17T14:53:25.324Z,26.20
2022-08-17T14:56:16.671Z,26.10
2022-08-17T14:59:06.179Z,26.10
2022-08-17T15:01:55.958Z,26.10
2022-08-17T15:04:47.739Z,26.10
2022-08-17T15:07:37.126Z,26.10
2022-08-17T15:10:26.556Z,26.10
2022-08-17T15:13:21.369Z,26.10
2022-08-17T15:16:13.773Z,26.20
2022-08-17T15:19:03.692Z,26.10
2022-08-17T15:21:53.203Z,26.10
2022-08-17T15:24:42.574Z,26.00
2022-08-17T15:27:32.776Z,26.10
2022-08-17T15:30:24.240Z,26.10
2022-08-17T15:33:19.112Z,26.20
2022-08-17T15:36:09.692Z,26.40
2022-08-17T15:38:59.753Z,26.40
2022-08-17T15:41:58.491Z,26.40
2022-08-17T15:44:50.671Z,26.40
2022-08-17T15:47:42.610Z,26.40
2022-08-17T15:50:32.128Z,26.40
2022-08-17T15:53:21.512Z,26.50
2022-08-17T15:56:11.317Z,26.50
2022-08-17T15:59:01.374Z,26.60
2022-08-17T16:03:06.215Z,26.70
2022-08-17T16:05:10.088Z,26.70
2022-08-17T16:07:59.980Z,26.80
2022-08-17T16:10:49.841Z,26.70
2022-08-17T16:13:40.703Z,26.80
2022-08-17T16:16:31.241Z,26.90
2022-08-17T16:19:20.654Z,26.80
2022-08-17T16:22:14.448Z,26.90
2022-08-17T16:25:07.597Z,27.00
2022-08-17T16:27:57.942Z,27.00
2022-08-17T16:30:47.371Z,27.00
2022-08-17T16:33:39.378Z,27.10
2022-08-17T16:36:29.905Z,27.10
2022-08-17T16:39:20.698Z,27.20
2022-08-17T16:42:24.995Z,27.20
2022-08-17T16:45:18.527Z,27.40
2022-08-17T16:48:08.492Z,27.40
2022-08-17T16:51:03.687Z,27.40
2022-08-17T16:53:59.321Z,27.40
2022-08-17T16:56:50.295Z,27.50
2022-08-17T16:59:42.640Z,27.70
2022-08-17T17:02:36.425Z,27.70
2022-08-17T17:05:57.694Z,27.80
2022-08-17T17:08:52.851Z,28.00
2022-08-17T17:11:45.427Z,27.80
2022-08-17T17:14:40.006Z,28.00
2022-08-17T17:17:34.450Z,28.10
2022-08-17T17:20:30.899Z,28.10
2022-08-17T17:23:41.041Z,28.10
2022-08-17T17:27:09.582Z,28.40
2022-08-17T17:30:10.912Z,28.40
2022-08-17T17:33:06.255Z,28.40
2022-08-17T17:36:00.817Z,28.40
2022-08-17T17:38:55.078Z,28.50
2022-08-17T17:41:49.145Z,28.50
2022-08-17T17:44:43.172Z,28.60
2022-08-17T17:47:36.426Z,28.70
2022-08-17T17:50:36.240Z,28.70
2022-08-17T17:53:34.928Z,29.00
2022-08-17T17:56:43.898Z,28.90
2022-08-17T17:59:49.249Z,29.00
2022-08-17T18:02:54.494Z,29.00
2022-08-17T18:06:05.054Z,29.10
2022-08-17T18:09:06.430Z,29.30
2022-08-17T18:12:19.745Z,29.80
2022-08-17T18:15:29.897Z,29.40
2022-08-17T18:18:38.660Z,29.50
2022-08-17T18:21:37.846Z,29.60
2022-08-17T18:24:35.116Z,29.40
2022-08-17T18:27:40.263Z,29.60
2022-08-17T18:30:30.176Z,29.50
2022-08-17T18:33:24.653Z,29.50
2022-08-17T18:36:30.349Z,29.60
2022-08-17T18:39:24.925Z,29.90
2022-08-17T18:42:27.585Z,29.70
2022-08-17T18:45:34.953Z,30.00
2022-08-17T18:48:30.284Z,30.00
2022-08-17T18:51:41.881Z,29.90
2022-08-17T18:54:36.045Z,30.10
2022-08-17T18:57:34.627Z,30.00
2022-08-17T19:00:40.525Z,30.20
2022-08-17T19:03:29.894Z,30.70
2022-08-17T19:06:29.954Z,30.30
2022-08-17T19:09:34.395Z,30.70
2022-08-17T19:12:31.410Z,30.90
2022-08-17T19:15:30.814Z,30.80
2022-08-17T19:18:25.406Z,31.10
2022-08-17T19:21:21.898Z,31.10
2022-08-17T19:24:19.549Z,31.20
2022-08-17T19:27:24.800Z,31.40
2022-08-17T19:30:24.447Z,31.90
2022-08-17T19:33:13.924Z,31.40
2022-08-17T19:36:11.809Z,31.60
2022-08-17T19:39:12.854Z,31.90
2022-08-17T19:42:12.226Z,31.90
2022-08-17T19:45:09.324Z,32.10
2022-08-17T19:48:12.362Z,32.10
2022-08-17T19:51:09.478Z,32.30
2022-08-17T19:54:07.424Z,32.50
2022-08-17T19:57:05.375Z,32.70
2022-08-17T20:00:03.318Z,32.70
2022-08-17T20:03:22.144Z,32.90
2022-08-17T20:06:14.263Z,32.90
2022-08-17T20:09:15.270Z,33.00
2022-08-17T20:12:11.307Z,33.40
2022-08-17T20:15:07.544Z,33.50
2022-08-17T20:18:01.666Z,33.40
2022-08-17T20:20:59.401Z,34.10
2022-08-17T20:23:55.775Z,33.70
2022-08-17T20:26:58.629Z,34.00
2022-08-17T20:30:10.398Z,34.10
2022-08-17T20:33:02.351Z,34.60
2022-08-17T20:36:16.055Z,34.10
2022-08-17T20:39:05.973Z,34.80
2022-08-17T20:42:08.143Z,34.30
2022-08-17T20:45:02.454Z,34.90
2022-08-17T20:48:20.093Z,34.60
2022-08-17T20:51:23.967Z,34.90
2022-08-17T20:54:51.858Z,35.30
2022-08-17T20:57:48.841Z,35.60
2022-08-17T21:00:45.844Z,35.10
2022-08-17T21:03:57.421Z,35.30
2022-08-17T21:07:29.087Z,35.90
2022-08-17T21:10:35.637Z,35.90
2022-08-17T21:14:09.145Z,35.50
2022-08-17T21:17:17.174Z,35.90
2022-08-17T21:20:26.530Z,35.70
2022-08-17T21:23:42.390Z,35.80
2022-08-17T21:26:50.055Z,36.10
2022-08-17T21:30:12.404Z,36.10
2022-08-17T21:33:31.625Z,36.60
2022-08-17T21:36:28.115Z,36.50
2022-08-17T21:39:23.278Z,36.40
2022-08-17T21:42:19.226Z,36.40
2022-08-17T21:45:18.942Z,36.40
2022-08-17T21:48:13.477Z,36.70
2022-08-17T21:51:12.270Z,36.70
2022-08-17T21:54:21.724Z,37.00
2022-08-17T21:57:20.299Z,37.00
2022-08-17T22:00:16.975Z,37.20
2022-08-17T22:03:23.653Z,37.10
2022-08-17T22:06:23.275Z,37.30
2022-08-17T22:09:22.711Z,37.60
2022-08-17T22:12:18.564Z,37.50
2022-08-17T22:15:10.424Z,37.50
2022-08-17T22:18:02.512Z,37.50
2022-08-17T22:20:54.780Z,37.60
2022-08-17T22:24:06.568Z,37.80
2022-08-17T22:27:10.342Z,37.80
2022-08-17T22:30:01.403Z,38.10
2022-08-17T22:32:51.409Z,37.90
2022-08-17T22:35:45.530Z,38.00
2022-08-17T22:38:35.439Z,38.30
2022-08-17T22:41:43.067Z,38.10
2022-08-17T22:44:37.841Z,38.70
2022-08-17T22:47:38.713Z,38.40
2022-08-17T22:50:32.994Z,38.70
2022-08-17T22:53:42.227Z,38.70
2022-08-17T22:56:51.560Z,38.70
2022-08-17T22:59:48.385Z,38.70
2022-08-17T23:02:52.999Z,39.10
2022-08-17T23:05:49.561Z,38.90
2022-08-17T23:08:49.469Z,39.00
2022-08-17T23:11:49.076Z,39.20
2022-08-17T23:14:46.039Z,39.30
2022-08-17T23:17:37.589Z,39.30
2022-08-17T23:20:27.130Z,39.40
2022-08-17T23:23:19.642Z,39.40
2022-08-17T23:26:11.361Z,39.50
2022-08-17T23:29:04.330Z,39.60
2022-08-17T23:31:57.789Z,39.60
2022-08-17T23:34:49.475Z,39.80
2022-08-17T23:37:40.616Z,39.70
2022-08-17T23:40:31.301Z,39.80
2022-08-17T23:43:25.556Z,39.90
2022-08-17T23:46:17.752Z,39.80
2022-08-17T23:49:08.551Z,40.00
2022-08-17T23:51:58.154Z,40.10
2022-08-17T23:54:49.074Z,40.20
2022-08-17T23:57:41.409Z,40.30
